Time;durP1;ratioP1;P1;durP2;ratioP2;P2;SDS_P1;SDS_P2;PMS_P1;PMS_P2;Temp;Humidity;BMP_temperature;BMP_pressure;BME280_temperature;BME280_humidity;BME280_pressure;Samples;Min_cycle;Max_cycle;Signal;HPM_P1;HPM_P2
2022/08/17 00:02:26;;;;;;;12.70;7.18;;;;;;;17.36;100.00;94706.97;5014070;28;20045;-65
2022/08/17 00:04:53;;;;;;;14.77;8.02;;;;;;;17.31;100.00;94704.38;5017146;28;20073;-65
2022/08/17 00:07:21;;;;;;;11.27;7.15;;;;;;;17.35;100.00;94715.91;5010948;28;20113;-64
2022/08/17 00:09:48;;;;;;;9.15;6.60;;;;;;;17.24;100.00;94719.69;5011752;28;20541;-65
2022/08/17 00:12:15;;;;;;;10.15;7.03;;;;;;;17.11;100.00;94715.06;5015975;28;20527;-65
2022/08/17 00:15:04;;;;;;;8.93;7.05;;;;;;;17.04;100.00;94722.47;5010592;28;20055;-66
2022/08/17 00:17:36;;;;;;;13.43;7.30;;;;;;;16.96;100.00;94714.13;5013231;28;20052;-66
2022/08/17 00:20:04;;;;;;;12.07;6.72;;;;;;;17.00;100.00;94720.38;5012735;28;20072;-66
2022/08/17 00:22:31;;;;;;;13.50;6.65;;;;;;;17.01;100.00;94721.16;5011547;28;20042;-66
2022/08/17 00:25:09;;;;;;;10.20;7.07;;;;;;;16.97;100.00;94720.94;4995789;28;20034;-67
2022/08/17 00:27:35;;;;;;;9.25;7.03;;;;;;;16.91;100.00;94722.03;5017143;28;20053;-67
2022/08/17 00:30:08;;;;;;;10.73;6.47;;;;;;;16.87;100.00;94710.50;5016253;28;20136;-67
2022/08/17 00:32:45;;;;;;;12.90;7.85;;;;;;;16.85;100.00;94707.31;5015558;28;20078;-66
2022/08/17 00:35:33;;;;;;;9.85;7.25;;;;;;;16.79;100.00;94713.66;5010316;28;20531;-66
2022/08/17 00:37:59;;;;;;;9.20;5.88;;;;;;;16.78;100.00;94714.69;5008246;28;20049;-66
2022/08/17 00:40:26;;;;;;;9.88;6.63;;;;;;;16.74;100.00;94711.06;5014809;28;20061;-66
2022/08/17 00:43:45;;;;;;;13.10;7.25;;;;;;;16.77;100.00;94706.03;5013729;28;20056;-64
2022/08/17 00:46:16;;;;;;;12.00;6.82;;;;;;;16.78;100.00;94706.81;5014882;28;20511;-66
2022/08/17 00:48:44;;;;;;;10.27;7.35;;;;;;;16.69;100.00;94709.25;5013556;28;20037;-65
2022/08/17 00:51:21;;;;;;;11.20;6.70;;;;;;;16.70;100.00;94700.28;5014096;28;20525;-66
2022/08/17 00:54:03;;;;;;;9.05;6.68;;;;;;;16.72;100.00;94702.66;5010399;28;20042;-65
2022/08/17 00:56:36;;;;;;;11.60;6.50;;;;;;;16.68;100.00;94706.91;5014490;28;20566;-65
2022/08/17 00:59:06;;;;;;;10.07;6.82;;;;;;;16.53;100.00;94684.88;5013704;28;20072;-66
2022/08/17 01:01:33;;;;;;;11.27;7.00;;;;;;;16.61;100.00;94692.19;4998701;28;20535;-66
2022/08/17 01:04:01;;;;;;;13.20;6.38;;;;;;;16.63;100.00;94703.22;5011933;28;20045;-66
2022/08/17 01:06:28;;;;;;;11.07;6.95;;;;;;;16.58;100.00;94703.25;5015608;28;20099;-66
2022/08/17 01:08:58;;;;;;;9.30;7.32;;;;;;;16.50;100.00;94697.78;5013555;28;20056;-66
2022/08/17 01:11:26;;;;;;;11.45;7.30;;;;;;;16.35;100.00;94703.88;5011311;28;20034;-66
2022/08/17 01:13:53;;;;;;;8.60;6.47;;;;;;;16.28;100.00;94703.38;5008573;28;20416;-67
2022/08/17 01:16:27;;;;;;;11.93;7.53;;;;;;;16.27;100.00;94707.09;5013123;28;20507;-66
2022/08/17 01:18:58;;;;;;;9.90;7.07;;;;;;;16.15;100.00;94705.56;5019450;28;20124;-66
2022/08/17 01:21:35;;;;;;;11.85;7.18;;;;;;;16.04;100.00;94709.25;5015110;28;20052;-66
2022/08/17 01:24:02;;;;;;;13.77;7.10;;;;;;;15.93;100.00;94707.72;5013242;28;20048;-66
2022/08/17 01:26:31;;;;;;;11.57;7.32;;;;;;;15.85;100.00;94709.84;5016892;28;20670;-67
2022/08/17 01:29:01;;;;;;;10.63;7.35;;;;;;;15.78;100.00;94705.94;5018491;28;20642;-67
2022/08/17 01:31:32;;;;;;;9.57;7.47;;;;;;;15.73;100.00;94709.31;5017942;28;20398;-66
2022/08/17 01:34:01;;;;;;;12.70;7.88;;;;;;;15.78;100.00;94706.72;5004358;28;20057;-66
2022/08/17 01:36:29;;;;;;;12.18;6.53;;;;;;;15.79;100.00;94708.28;5016962;28;20045;-66
2022/08/17 01:38:56;;;;;;;10.90;8.38;;;;;;;15.72;100.00;94699.88;5015980;28;20049;-66
2022/08/17 01:41:23;;;;;;;18.27;8.48;;;;;;;15.64;100.00;94688.06;5018775;28;20045;-67
2022/08/17 01:43:55;;;;;;;12.05;7.40;;;;;;;15.70;100.00;94704.63;5014514;28;20054;-67
2022/08/17 01:46:26;;;;;;;11.68;7.30;;;;;;;15.65;100.00;94691.50;5017081;28;20037;-66
2022/08/17 01:48:55;;;;;;;12.05;7.30;;;;;;;15.62;100.00;94702.50;5018428;28;20050;-66
2022/08/17 01:51:24;;;;;;;15.60;7.15;;;;;;;15.55;100.00;94704.63;5018551;28;20497;-67
2022/08/17 01:53:56;;;;;;;14.40;8.95;;;;;;;15.51;100.00;94708.84;5019071;28;20052;-66
2022/08/17 01:56:26;;;;;;;14.52;7.93;;;;;;;15.22;100.00;94672.66;5021308;28;20305;-67
2022/08/17 01:58:53;;;;;;;13.73;9.00;;;;;;;15.41;100.00;94713.06;5011498;28;20068;-66
2022/08/17 02:01:23;;;;;;;10.88;7.20;;;;;;;15.37;100.00;94701.47;5015798;28;20060;-66
2022/08/17 02:03:52;;;;;;;11.95;7.93;;;;;;;15.29;100.00;94700.19;5022676;28;20061;-66
2022/08/17 02:06:29;;;;;;;13.55;8.13;;;;;;;15.32;100.00;94709.34;5020884;28;20041;-65
2022/08/17 02:09:10;;;;;;;13.90;8.38;;;;;;;15.29;100.00;94702.03;5003677;28;20514;-65
2022/08/17 02:11:43;;;;;;;14.82;8.63;;;;;;;15.31;100.00;94697.31;5022929;28;20423;-65
2022/08/17 02:14:12;;;;;;;14.60;8.15;;;;;;;15.27;100.00;94702.28;5020965;28;20045;-66
2022/08/17 02:16:40;;;;;;;15.00;8.27;;;;;;;15.26;100.00;94705.16;5013068;28;21644;-65
2022/08/17 02:19:13;;;;;;;15.63;9.38;;;;;;;15.22;100.00;94698.88;5019105;28;20089;-65
2022/08/17 02:21:43;;;;;;;15.38;8.38;;;;;;;15.22;100.00;94709.38;5019134;28;20045;-66
2022/08/17 02:24:16;;;;;;;9.48;8.00;;;;;;;15.16;100.00;94700.72;5017080;28;20300;-64
2022/08/17 02:27:04;;;;;;;12.43;8.32;;;;;;;15.06;100.00;94691.00;5015495;28;20091;-68
2022/08/17 02:29:31;;;;;;;19.13;7.95;;;;;;;15.19;100.00;94699.41;5019066;28;20045;-67
2022/08/17 02:31:59;;;;;;;15.43;8.32;;;;;;;15.18;100.00;94695.19;5017686;28;20617;-67
2022/08/17 02:34:26;;;;;;;16.30;8.07;;;;;;;15.18;100.00;94697.81;5016283;28;20053;-66
2022/08/17 02:36:53;;;;;;;12.30;7.60;;;;;;;15.16;100.00;94694.66;5020810;28;20120;-67
2022/08/17 02:39:20;;;;;;;13.07;8.40;;;;;;;15.12;100.00;94704.13;5018222;28;20046;-67
2022/08/17 02:41:47;;;;;;;16.08;8.45;;;;;;;15.12;100.00;94714.63;5021835;28;20041;-67
2022/08/17 02:44:14;;;;;;;11.00;7.97;;;;;;;15.01;100.00;94701.47;5018859;28;20469;-66
2022/08/17 02:47:02;;;;;;;14.30;8.02;;;;;;;15.01;100.00;94719.84;5017174;28;20060;-67
2022/08/17 02:49:29;;;;;;;16.90;9.15;;;;;;;15.04;100.00;94724.56;5015338;28;20046;-66
2022/08/17 02:51:57;;;;;;;13.52;8.10;;;;;;;15.07;100.00;94712.75;5018979;28;20049;-65
2022/08/17 02:54:24;;;;;;;12.75;8.40;;;;;;;15.18;100.00;94708.31;5020254;28;20048;-66
2022/08/17 02:57:08;;;;;;;14.75;7.72;;;;;;;15.16;100.00;94713.84;5011990;28;20601;-66
2022/08/17 02:59:37;;;;;;;15.05;8.40;;;;;;;15.07;100.00;94708.31;5019987;28;20574;-66
2022/08/17 03:02:10;;;;;;;11.50;7.75;;;;;;;15.04;100.00;94719.31;5002591;28;20042;-66
2022/08/17 03:04:38;;;;;;;17.58;8.73;;;;;;;14.97;100.00;94724.03;5020579;28;20053;-66
2022/08/17 03:07:05;;;;;;;11.45;7.43;;;;;;;14.94;100.00;94716.69;5017179;28;20040;-66
2022/08/17 03:09:32;;;;;;;13.82;8.20;;;;;;;14.90;100.00;94723.50;5019785;28;20045;-67
2022/08/17 03:12:11;;;;;;;13.50;7.85;;;;;;;14.87;100.00;94724.03;5020070;28;20045;-66
2022/08/17 03:14:40;;;;;;;12.20;8.38;;;;;;;14.81;100.00;94730.31;5015467;28;20052;-66
2022/08/17 03:17:09;;;;;;;12.18;8.02;;;;;;;14.79;100.00;94729.78;5018796;28;20112;-66
2022/08/17 03:19:36;;;;;;;14.77;8.15;;;;;;;14.68;100.00;94721.91;5016546;28;20132;-65
2022/08/17 03:22:08;;;;;;;12.57;7.60;;;;;;;14.62;100.00;94728.19;5002716;28;20049;-66
2022/08/17 03:24:55;;;;;;;18.05;8.38;;;;;;;14.60;100.00;94732.09;5016440;28;20479;-66
2022/08/17 03:27:22;;;;;;;14.30;8.88;;;;;;;14.61;100.00;94731.84;5016818;28;20168;-67
2022/08/17 03:29:49;;;;;;;15.52;7.95;;;;;;;14.65;100.00;94732.09;5016467;28;20045;-66
2022/08/17 03:32:16;;;;;;;17.25;8.57;;;;;;;14.72;100.00;94728.19;5014104;28;20045;-66
2022/08/17 03:34:43;;;;;;;18.30;8.75;;;;;;;14.76;100.00;94740.78;5009983;28;20182;-66
2022/08/17 03:37:09;;;;;;;13.75;9.15;;;;;;;14.74;100.00;94730.56;5016527;28;20037;-66
2022/08/17 03:39:37;;;;;;;18.20;8.57;;;;;;;14.70;100.00;94743.38;5017117;28;20447;-64
2022/08/17 03:42:17;;;;;;;14.98;10.00;;;;;;;14.72;100.00;94743.13;5015759;28;20127;-66
2022/08/17 03:44:59;;;;;;;13.57;8.48;;;;;;;14.65;100.00;94743.38;5015898;28;20523;-66
2022/08/17 03:58:32;;;;;;;11.95;8.63;;;;;;;14.50;100.00;94761.66;5017252;28;20408;-66
2022/08/17 04:01:00;;;;;;;11.30;8.10;;;;;;;14.46;100.00;94747.50;5013462;28;20324;-66
2022/08/17 04:03:27;;;;;;;12.60;8.52;;;;;;;14.53;100.00;94755.88;5014379;28;20041;-67
2022/08/17 04:05:54;;;;;;;11.27;7.35;;;;;;;14.58;100.00;94753.31;5012008;28;20507;-67
2022/08/17 04:08:21;;;;;;;12.85;7.55;;;;;;;14.64;100.00;94760.16;5016073;28;20428;-66
2022/08/17 04:10:48;;;;;;;14.32;8.13;;;;;;;14.71;100.00;94763.31;5008642;28;20042;-67
2022/08/17 04:13:15;;;;;;;14.20;7.82;;;;;;;14.62;100.00;94737.84;4986342;28;20378;-67
2022/08/17 04:15:50;;;;;;;17.67;9.10;;;;;;;14.96;100.00;94758.38;5008110;28;20724;-66
2022/08/17 04:18:18;;;;;;;22.63;14.93;;;;;;;15.05;100.00;94762.88;5014739;28;20037;-66
2022/08/17 04:20:44;;;;;;;39.10;23.70;;;;;;;15.14;100.00;94762.34;5009858;28;20481;-66
2022/08/17 04:23:16;;;;;;;26.92;17.73;;;;;;;15.25;100.00;94767.34;5009938;28;20626;-66
2022/08/17 04:25:49;;;;;;;33.25;18.80;;;;;;;15.18;100.00;94739.78;5010831;28;20469;-66
2022/08/17 04:28:17;;;;;;;26.33;20.30;;;;;;;15.38;100.00;94776.53;5010677;28;20056;-66
2022/08/17 04:30:46;;;;;;;33.35;21.65;;;;;;;15.43;100.00;94763.44;5009742;28;20238;-66
2022/08/17 04:33:16;;;;;;;36.67;21.15;;;;;;;15.49;100.00;94767.63;5007604;28;20041;-66
2022/08/17 04:35:46;;;;;;;33.47;23.15;;;;;;;15.55;100.00;94765.00;5009430;28;20518;-68
2022/08/17 04:38:19;;;;;;;31.83;20.95;;;;;;;15.73;100.00;94776.78;5006438;28;20038;-68
2022/08/17 04:43:34;;;;;;;24.23;15.13;;;;;;;15.89;100.00;94759.22;5011662;28;20037;-79
2022/08/17 04:46:07;;;;;;;22.85;14.90;;;;;;;16.09;100.00;94774.91;5001897;28;20075;-78
2022/08/17 04:48:56;;;;;;;23.65;13.65;;;;;;;16.36;100.00;94779.84;5016820;28;20041;-78
2022/08/17 04:51:33;;;;;;;16.63;11.90;;;;;;;16.49;100.00;94778.47;5004099;28;20045;-77
2022/08/17 04:54:03;;;;;;;17.15;10.63;;;;;;;16.67;100.00;94784.19;4981008;28;20127;-77
2022/08/17 04:56:31;;;;;;;21.33;11.95;;;;;;;16.86;100.00;94777.28;5000302;28;20697;-79
2022/08/17 04:59:07;;;;;;;22.02;12.43;;;;;;;17.04;100.00;94783.00;4998871;28;20057;-78
2022/08/17 05:01:37;;;;;;;18.08;12.80;;;;;;;17.22;100.00;94790.25;5017430;28;20042;-77
2022/08/17 05:04:09;;;;;;;21.35;11.07;;;;;;;17.37;100.00;94790.13;5013619;28;20053;-77
2022/08/17 05:06:56;;;;;;;15.88;11.18;;;;;;;17.52;100.00;94798.97;5018241;28;20439;-77
2022/08/17 05:09:23;;;;;;;14.02;9.80;;;;;;;17.49;100.00;94773.22;4985109;28;20096;-77
2022/08/17 05:11:50;;;;;;;19.20;10.45;;;;;;;17.56;100.00;94792.13;5009214;28;20064;-78
2022/08/17 05:14:21;;;;;;;17.98;10.00;;;;;;;17.59;100.00;94788.91;5017254;28;20045;-76
2022/08/17 05:16:58;;;;;;;16.95;9.95;;;;;;;17.73;100.00;94795.13;5016256;28;20474;-78
2022/08/17 05:19:26;;;;;;;15.63;9.25;;;;;;;17.73;100.00;94776.66;5000827;28;20446;-78
2022/08/17 05:21:53;;;;;;;12.23;9.95;;;;;;;17.94;100.00;94794.97;5003415;28;20515;-77
2022/08/17 05:24:20;;;;;;;16.27;8.80;;;;;;;17.96;100.00;94783.09;5020166;28;20131;-78
2022/08/17 05:27:07;;;;;;;11.55;8.25;;;;;;;18.20;100.00;94808.69;5019144;28;20119;-77
2022/08/17 05:29:34;;;;;;;14.18;8.55;;;;;;;18.26;100.00;94802.31;5005915;28;20049;-78
2022/08/17 05:32:09;;;;;;;13.23;8.55;;;;;;;18.45;100.00;94802.34;5000801;28;20404;-78
2022/08/17 05:34:58;;;;;;;;;;;;;;;18.58;100.00;94813.28;5001211;28;20429;-77
2022/08/17 05:37:25;;;;;;;13.63;8.23;;;;;;;18.68;100.00;94802.63;5021165;28;19925;-78
2022/08/17 05:39:53;;;;;;;12.13;8.02;;;;;;;18.79;100.00;94804.06;5018986;28;20057;-78
2022/08/17 05:42:20;;;;;;;16.65;8.63;;;;;;;18.99;100.00;94818.09;5015894;28;20518;-78
2022/08/17 05:44:47;;;;;;;13.52;8.23;;;;;;;19.15;100.00;94811.56;5000386;28;20286;-77
2022/08/17 05:47:14;;;;;;;15.70;8.05;;;;;;;19.24;100.00;94809.84;5000032;28;20046;-78
2022/08/17 05:49:41;;;;;;;11.20;8.10;;;;;;;19.47;100.00;94817.97;5001830;28;20041;-78
2022/08/17 05:52:22;;;;;;;9.68;6.85;;;;;;;19.63;100.00;94816.66;4998745;28;20147;-78
2022/08/17 05:54:55;;;;;;;11.10;7.15;;;;;;;19.76;100.00;94814.41;5012946;28;20690;-78
2022/08/17 05:57:29;;;;;;;12.93;7.53;;;;;;;19.91;100.00;94811.47;5008920;28;20480;-78
2022/08/17 06:00:09;;;;;;;12.65;6.93;;;;;;;20.10;99.86;94808.03;4997561;28;20049;-78
2022/08/17 06:03:03;;;;;;;18.85;7.65;;;;;;;20.29;98.88;94806.06;5014632;28;20412;-77
2022/08/17 06:05:52;;;;;;;14.23;6.88;;;;;;;20.32;98.45;94800.19;5000575;28;20509;-77
2022/08/17 06:08:32;;;;;;;12.95;7.30;;;;;;;20.43;98.14;94812.16;5001915;28;20041;-78
2022/08/17 06:11:21;;;;;;;9.07;5.85;;;;;;;20.56;97.82;94807.16;5008374;28;20082;-78
2022/08/17 06:14:11;;;;;;;15.20;6.30;;;;;;;20.73;96.61;94810.03;4998824;28;20592;-78
2022/08/17 06:16:43;;;;;;;13.55;6.28;;;;;;;20.85;94.52;94800.78;5011514;28;20586;-78
2022/08/17 06:19:30;;;;;;;15.82;6.85;;;;;;;21.00;94.27;94805.78;5003806;28;20045;-80
2022/08/17 06:21:57;;;;;;;19.63;6.85;;;;;;;21.09;94.24;94811.94;5017988;28;20035;-65
2022/08/17 06:24:38;;;;;;;10.48;6.47;;;;;;;21.20;93.70;94812.50;5016778;28;20049;-67
2022/08/17 06:27:17;;;;;;;10.27;6.68;;;;;;;21.30;93.22;94806.19;5018750;28;20049;-69
2022/08/17 06:30:01;;;;;;;10.95;7.15;;;;;;;21.42;91.71;94798.50;4997001;28;20052;-71
2022/08/17 06:32:28;;;;;;;7.35;5.35;;;;;;;21.56;90.87;94801.91;5012526;28;20041;-68
2022/08/17 06:34:56;;;;;;;12.98;5.97;;;;;;;21.71;91.20;94802.63;4993807;28;20438;-70
2022/08/17 06:37:39;;;;;;;13.18;6.05;;;;;;;21.80;90.47;94806.13;5013868;28;20625;-70
2022/08/17 06:40:25;;;;;;;8.07;4.80;;;;;;;21.95;89.16;94805.75;5001997;28;20045;-68
2022/08/17 06:43:18;;;;;;;8.32;5.22;;;;;;;22.06;87.41;94808.94;5009321;28;20052;-66
2022/08/17 06:45:56;;;;;;;11.38;4.85;;;;;;;22.21;88.69;94807.75;4997888;28;20054;-66
2022/08/17 06:48:32;;;;;;;11.05;5.47;;;;;;;22.38;87.66;94806.28;5013467;28;20079;-66
2022/08/17 06:51:06;;;;;;;9.70;6.05;;;;;;;22.50;86.36;94809.16;5017486;28;20438;-66
2022/08/17 06:53:45;;;;;;;14.85;6.10;;;;;;;22.54;84.61;94804.78;5013298;28;20045;-66
2022/08/17 06:56:22;;;;;;;14.23;6.95;;;;;;;22.58;85.80;94800.44;5015256;28;20528;-66
2022/08/17 06:58:54;;;;;;;10.52;6.32;;;;;;;22.77;85.57;94818.00;5015978;28;20182;-66
2022/08/17 07:01:29;;;;;;;13.60;5.72;;;;;;;22.90;84.53;94807.25;5019062;28;20048;-67
2022/08/17 07:04:11;;;;;;;11.50;6.38;;;;;;;23.07;84.03;94817.13;5003397;28;20045;-66
2022/08/17 07:06:38;;;;;;;12.40;6.25;;;;;;;23.15;83.06;94817.47;5009538;28;20042;-66
2022/08/17 07:09:26;;;;;;;8.35;5.47;;;;;;;23.36;83.87;94823.75;5016667;28;20037;-66
2022/08/17 07:12:04;;;;;;;15.10;5.90;;;;;;;23.40;81.52;94819.34;5010835;28;20049;-66
2022/08/17 07:14:39;;;;;;;11.38;4.88;;;;;;;23.43;80.67;94821.41;4997679;28;20217;-66
2022/08/17 07:17:12;;;;;;;11.35;4.80;;;;;;;23.36;79.07;94807.78;4993493;28;20050;-66
2022/08/17 07:19:44;;;;;;;12.93;4.90;;;;;;;23.58;79.31;94822.03;4995978;28;20132;-67
2022/08/17 07:22:17;;;;;;;9.77;5.60;;;;;;;23.67;79.23;94812.16;4973775;28;20053;-69
2022/08/17 07:24:46;;;;;;;9.05;4.70;;;;;;;23.78;79.31;94813.38;4998939;28;20053;-68
2022/08/17 07:27:20;;;;;;;9.38;4.10;;;;;;;23.82;78.91;94818.88;4998977;28;20037;-68
2022/08/17 07:30:21;;;;;;;10.82;4.78;;;;;;;23.93;78.34;94819.34;5000216;28;20033;-68
2022/08/17 07:33:08;;;;;;;12.85;5.47;;;;;;;24.02;77.74;94812.13;4967970;28;20078;-70
2022/08/17 07:35:42;;;;;;;6.82;4.07;;;;;;;24.03;77.61;94808.38;4997483;28;20049;-70
2022/08/17 07:38:26;;;;;;;8.35;4.07;;;;;;;23.87;77.13;94809.97;4992040;28;20042;-68
2022/08/17 07:41:03;;;;;;;10.75;5.00;;;;;;;24.03;76.94;94813.69;4996614;28;20056;-67
2022/08/17 07:43:39;;;;;;;8.18;4.50;;;;;;;24.16;76.58;94812.72;4994589;28;20439;-69
2022/08/17 07:49:30;;;;;;;7.30;4.15;;;;;;;24.46;74.79;94810.13;4991034;28;20447;-70
2022/08/17 07:52:01;;;;;;;14.75;5.55;;;;;;;24.66;74.30;94802.56;4995121;28;20435;-69
2022/08/17 07:54:48;;;;;;;12.65;4.22;;;;;;;24.93;72.66;94801.31;4979940;28;20104;-69
2022/08/17 07:57:18;;;;;;;9.98;4.18;;;;;;;24.98;71.55;94809.88;4990464;28;20038;-68
2022/08/17 08:00:15;;;;;;;6.95;4.30;;;;;;;25.00;71.28;94797.00;4991472;28;20491;-70
2022/08/17 08:02:46;;;;;;;11.38;4.40;;;;;;;25.16;72.14;94799.13;4986447;28;20058;-70
2022/08/17 08:05:22;;;;;;;9.77;3.80;;;;;;;25.37;71.44;94799.94;4989139;28;20053;-70
2022/08/17 08:08:31;;;;;;;8.65;5.07;;;;;;;25.51;69.79;94798.88;4992984;28;20035;-68
2022/08/17 08:11:06;;;;;;;5.80;4.00;;;;;;;25.57;71.00;94802.91;4989082;28;20050;-68
2022/08/17 08:13:34;;;;;;;17.90;4.47;;;;;;;25.79;68.86;94798.34;4991255;28;20042;-69
2022/08/17 08:16:18;;;;;;;8.50;4.55;;;;;;;25.96;66.03;94798.16;5007140;28;20050;-69
2022/08/17 08:18:48;;;;;;;10.80;5.00;;;;;;;26.02;66.80;94799.53;5014484;28;20439;-69
2022/08/17 08:22:01;;;;;;;6.43;4.45;;;;;;;26.24;63.85;94802.91;4999077;28;20045;-69
2022/08/17 08:25:06;;;;;;;6.38;4.55;;;;;;;26.16;61.03;94791.22;4947366;28;20598;-67
2022/08/17 08:27:39;;;;;;;7.85;4.15;;;;;;;26.27;59.57;94796.91;4977080;28;20486;-69
2022/08/17 08:30:13;;;;;;;10.95;4.25;;;;;;;26.35;59.38;94790.69;5021357;28;20454;-69
2022/08/17 08:33:25;;;;;;;7.68;4.13;;;;;;;26.61;59.08;94794.97;5019114;28;20057;-70
2022/08/17 08:36:06;;;;;;;12.82;4.38;;;;;;;26.88;59.29;94794.28;4982014;28;20051;-70
2022/08/17 08:39:14;;;;;;;10.02;4.10;;;;;;;27.20;56.39;94794.44;5020091;28;20052;-70
2022/08/17 08:41:59;;;;;;;13.45;4.93;;;;;;;27.41;54.57;94788.19;4950294;28;20061;-69
2022/08/17 08:44:35;;;;;;;10.50;4.07;;;;;;;27.50;51.61;94786.16;5018263;28;20053;-69
2022/08/17 08:47:40;;;;;;;7.70;3.63;;;;;;;27.23;51.41;94788.44;5021384;28;20988;-69
2022/08/17 08:50:31;;;;;;;5.45;3.72;;;;;;;27.21;52.36;94790.66;5021101;28;20037;-69
2022/08/17 08:53:13;;;;;;;;;;;;;;;27.29;51.59;94790.91;5020562;28;20068;-69
2022/08/17 08:55:49;;;;;;;5.78;3.83;;;;;;;27.39;48.94;94779.75;5023296;28;19925;-69
2022/08/17 08:58:49;;;;;;;9.95;5.32;;;;;;;27.60;50.47;94780.34;5016660;28;20044;-70
2022/08/17 09:01:33;;;;;;;7.00;4.55;;;;;;;27.83;48.93;94777.09;4994533;28;20511;-70
2022/08/17 09:04:28;;;;;;;5.43;4.63;;;;;;;27.83;45.64;94782.44;5014139;28;20069;-70
2022/08/17 09:07:33;;;;;;;9.35;4.53;;;;;;;27.92;47.48;94780.41;5020348;28;20041;-70
2022/08/17 09:10:29;;;;;;;4.93;3.78;;;;;;;28.21;44.15;94781.91;5017949;28;20083;-70
2022/08/17 09:13:20;;;;;;;5.22;3.92;;;;;;;28.27;44.08;94778.97;5017577;28;20056;-70
2022/08/17 09:15:56;;;;;;;7.15;4.10;;;;;;;28.00;43.42;94787.53;4920247;29;20533;-70
2022/08/17 09:18:37;;;;;;;6.53;3.80;;;;;;;28.20;44.33;94779.59;5005188;28;20172;-70
2022/08/17 09:21:53;;;;;;;7.57;3.55;;;;;;;28.43;42.24;94779.75;5002660;28;20044;-70
2022/08/17 09:24:30;;;;;;;5.05;4.18;;;;;;;28.61;40.92;94777.53;5021451;28;20054;-70
2022/08/17 09:27:22;;;;;;;5.45;3.35;;;;;;;28.96;41.11;94766.06;5020857;28;20073;-70
2022/08/17 09:30:17;;;;;;;5.32;3.40;;;;;;;29.05;39.53;94769.31;5018456;28;20041;-70
2022/08/17 09:32:53;;;;;;;4.18;3.35;;;;;;;29.04;40.64;94773.13;5016681;28;20530;-68
2022/08/17 09:36:06;;;;;;;6.28;4.38;;;;;;;29.26;39.91;94776.28;5002074;28;20054;-69
2022/08/17 09:38:59;;;;;;;4.93;3.67;;;;;;;29.33;39.29;94769.19;5014927;28;20037;-69
2022/08/17 09:41:42;;;;;;;7.32;4.10;;;;;;;29.60;39.31;94765.84;5020543;28;20131;-70
2022/08/17 09:44:39;;;;;;;8.73;4.15;;;;;;;29.57;39.78;94756.59;5019381;28;20052;-70
2022/08/17 09:47:25;;;;;;;4.57;4.05;;;;;;;29.62;39.81;94768.94;5020914;28;20037;-70
2022/08/17 09:49:57;;;;;;;6.95;4.18;;;;;;;29.84;39.32;94770.94;5003005;28;20050;-69
2022/08/17 09:52:27;;;;;;;9.65;4.75;;;;;;;30.11;38.38;94762.97;5014694;28;20029;-69
2022/08/17 09:54:56;;;;;;;8.32;3.88;;;;;;;30.06;38.80;94750.59;5019208;28;20114;-68
2022/08/17 09:58:03;;;;;;;8.18;4.07;;;;;;;30.17;39.00;94756.16;5003836;28;20041;-70
2022/08/17 10:00:36;;;;;;;5.30;4.07;;;;;;;30.45;38.41;94755.09;5019545;28;20068;-70
2022/08/17 10:03:31;;;;;;;6.18;4.05;;;;;;;30.67;37.83;94756.22;5019733;28;20041;-69
2022/08/17 10:06:12;;;;;;;7.38;3.20;;;;;;;30.85;37.20;94753.78;4990686;28;20436;-69
2022/08/17 10:08:51;;;;;;;5.30;3.05;;;;;;;30.37;36.44;94756.13;5003392;28;20037;-69
2022/08/17 10:14:55;;;;;;;4.85;3.55;;;;;;;30.72;34.67;94747.03;5016322;28;20041;-70
2022/08/17 10:17:49;;;;;;;7.50;3.65;;;;;;;30.55;35.38;94742.97;5012239;28;20038;-69
2022/08/17 10:20:29;;;;;;;5.63;3.50;;;;;;;30.61;36.58;94742.31;5018370;28;20049;-68
2022/08/17 10:26:14;;;;;;;5.80;3.72;;;;;;;30.74;36.09;94728.63;5004951;28;20145;-71
2022/08/17 10:29:14;;;;;;;2.97;2.25;;;;;;;30.57;35.48;94740.69;5008434;28;20054;-68
2022/08/17 10:32:07;;;;;;;7.68;3.97;;;;;;;30.71;36.01;94740.13;5010398;28;20045;-69
2022/08/17 10:34:34;;;;;;;5.95;3.80;;;;;;;30.71;36.51;94742.81;5013858;28;20042;-68
2022/08/17 10:37:41;;;;;;;3.80;3.22;;;;;;;30.74;36.42;94739.38;5014285;28;20184;-69
2022/08/17 10:40:33;;;;;;;5.35;3.15;;;;;;;31.38;35.87;94740.25;5017520;28;20037;-69
2022/08/17 10:43:45;;;;;;;8.60;3.30;;;;;;;31.34;35.20;94726.00;5015032;28;20088;-68
2022/08/17 10:47:03;;;;;;;7.85;3.40;;;;;;;32.30;34.21;94728.13;4917489;29;20051;-69
2022/08/17 10:49:37;;;;;;;5.00;2.97;;;;;;;32.60;33.35;94739.94;4918619;29;20054;-68
2022/08/17 10:52:20;;;;;;;8.32;3.90;;;;;;;32.45;33.05;94733.63;4985267;28;20511;-69
2022/08/17 10:55:11;;;;;;;4.72;3.58;;;;;;;32.44;33.25;94727.47;5010506;28;20050;-68
2022/08/17 10:57:44;;;;;;;7.00;3.97;;;;;;;32.76;33.20;94729.63;5016949;28;20048;-68
2022/08/17 11:00:26;;;;;;;4.00;3.38;;;;;;;32.89;31.40;94732.78;5013608;28;20046;-66
2022/08/17 11:02:54;;;;;;;7.10;3.23;;;;;;;32.82;31.86;94725.44;5014152;28;20037;-67
2022/08/17 11:05:51;;;;;;;7.25;3.45;;;;;;;32.40;31.54;94737.44;5016935;28;20042;-67
2022/08/17 11:08:38;;;;;;;5.20;3.63;;;;;;;32.05;34.05;94744.06;5017167;28;20033;-67
2022/08/17 11:11:24;;;;;;;10.75;3.50;;;;;;;31.01;37.37;94746.34;5010412;28;20538;-67
2022/08/17 11:14:13;;;;;;;9.93;4.35;;;;;;;29.73;40.47;94748.47;5011073;28;20050;-67
2022/08/17 11:16:46;;;;;;;9.73;3.97;;;;;;;29.12;42.66;94753.38;4981593;28;20084;-67
2022/08/17 11:19:36;;;;;;;8.25;4.65;;;;;;;28.47;46.22;94761.09;4992736;28;20092;-67
2022/08/17 11:22:25;;;;;;;16.30;4.57;;;;;;;27.86;48.99;94755.00;4993800;28;20064;-68
2022/08/17 11:25:11;;;;;;;13.90;4.35;;;;;;;27.39;51.26;94750.31;4994150;28;20042;-73
2022/08/17 11:27:39;;;;;;;9.55;4.72;;;;;;;27.06;52.39;94767.31;4974195;28;20132;-68
2022/08/17 11:30:28;;;;;;;6.03;4.60;;;;;;;26.68;52.45;94752.44;4997253;28;20052;-68
2022/08/17 11:32:57;;;;;;;9.98;4.97;;;;;;;26.65;54.83;94748.56;4995743;28;20594;-68
2022/08/17 11:35:37;;;;;;;8.85;5.43;;;;;;;26.59;54.92;94754.44;4995520;28;20384;-68
2022/08/17 11:38:03;;;;;;;7.30;5.32;;;;;;;26.68;56.00;94747.09;4993901;28;20088;-68
2022/08/17 11:41:17;;;;;;;9.55;5.68;;;;;;;26.74;55.07;94751.13;4996415;28;20448;-68
2022/08/17 11:44:18;;;;;;;8.70;5.60;;;;;;;26.87;53.45;94741.97;4999853;28;20084;-68
2022/08/17 11:52:54;;;;;;;5.18;4.47;;;;;;;28.16;51.79;94773.34;4995545;28;20054;-68
2022/08/17 11:55:26;;;;;;;5.82;4.43;;;;;;;28.47;49.47;94766.44;4997549;28;20057;-71
2022/08/17 11:58:29;;;;;;;5.20;4.50;;;;;;;29.06;49.08;94765.50;4990748;28;20511;-69
2022/08/17 12:00:56;;;;;;;5.80;4.32;;;;;;;29.64;46.17;94766.69;4990126;28;20053;-69
2022/08/17 12:03:35;;;;;;;6.38;4.47;;;;;;;30.27;42.69;94769.00;4994423;28;20052;-69
2022/08/17 12:06:18;;;;;;;5.68;4.43;;;;;;;30.89;39.37;94773.41;4980174;28;20052;-70
2022/08/17 12:08:55;;;;;;;7.28;4.10;;;;;;;31.82;41.10;94768.47;4992525;28;20049;-69
2022/08/17 12:11:45;;;;;;;5.45;4.20;;;;;;;32.42;40.41;94767.50;4982338;28;20042;-72
2022/08/17 12:14:34;;;;;;;4.63;3.53;;;;;;;33.01;37.48;94770.25;4994695;28;20346;-72
2022/08/17 12:17:24;;;;;;;6.53;4.15;;;;;;;33.44;36.27;94764.28;4999609;28;20041;-70
2022/08/17 12:20:22;;;;;;;5.03;3.35;;;;;;;33.60;36.07;94767.44;4941634;28;20054;-69
2022/08/17 12:23:03;;;;;;;9.85;3.20;;;;;;;34.27;30.59;94765.31;5014955;28;20135;-68
2022/08/17 12:25:37;;;;;;;5.43;3.53;;;;;;;33.82;29.66;94767.53;4989154;28;20045;-71
2022/08/17 12:28:20;;;;;;;4.40;3.42;;;;;;;33.19;31.65;94764.97;5006085;28;20096;-68
2022/08/17 12:30:49;;;;;;;3.55;3.22;;;;;;;32.57;31.40;94758.38;5010759;28;20052;-68
2022/08/17 12:33:22;;;;;;;4.22;3.20;;;;;;;32.68;32.05;94766.56;4927169;28;20099;-68
2022/08/17 12:36:02;;;;;;;5.63;3.05;;;;;;;32.37;32.44;94759.75;5014209;28;20053;-68
2022/08/17 12:38:33;;;;;;;8.68;3.83;;;;;;;32.08;33.53;94764.13;4996678;28;20077;-68
2022/08/17 12:41:25;;;;;;;4.75;3.75;;;;;;;31.75;33.95;94763.78;5011066;28;20339;-68
2022/08/17 12:44:00;;;;;;;6.93;3.67;;;;;;;31.74;34.54;94756.81;5016265;28;20057;-69